Terminal Aerodrome Forecast
Issued by NWS

Home | Current Version | Previous Version | Text Only | Print | Product List | Glossary On
Versions: 1 2 3 4 5 6 7 8 9 10 11 12 13 14 15 16 17 18
000
FTUS41 KBOX 191408 AAA
TAFFMH
TAF AMD
KFMH 191408Z 1914/2012 06009KT P6SM OVC004
     FM191600 24006KT P6SM SCT005 BKN100
     FM192100 23009KT P6SM SKC
     FM200400 25006KT P6SM FEW003
     FM200600 26004KT 2SM BR BKN003=

USA.gov is the U.S. government's official web portal to all federal, state and local government web resources and services.